sensor_id;sensor_type;location;lat;lon;timestamp;P1;durP1;ratioP1;P2;durP2;ratioP2
65289;SDS011;51893;59.754;10.110;2022-12-20T00:01:48;17.30;;;9.70;;
65289;SDS011;51893;59.754;10.110;2022-12-20T00:04:17;14.80;;;8.50;;
65289;SDS011;51893;59.754;10.110;2022-12-20T00:06:44;16.30;;;8.70;;
65289;SDS011;51893;59.754;10.110;2022-12-20T00:09:14;17.20;;;7.90;;
65289;SDS011;51893;59.754;10.110;2022-12-20T00:11:41;11.50;;;7.00;;
65289;SDS011;51893;59.754;10.110;2022-12-20T00:14:09;9.80;;;5.60;;
65289;SDS011;51893;59.754;10.110;2022-12-20T00:16:38;12.90;;;6.40;;
65289;SDS011;51893;59.754;10.110;2022-12-20T00:19:06;13.00;;;6.50;;
65289;SDS011;51893;59.754;10.110;2022-12-20T00:21:38;15.00;;;8.10;;
65289;SDS011;51893;59.754;10.110;2022-12-20T00:24:05;15.60;;;8.70;;
65289;SDS011;51893;59.754;10.110;2022-12-20T00:26:33;14.40;;;7.60;;
65289;SDS011;51893;59.754;10.110;2022-12-20T00:29:01;12.10;;;6.80;;
65289;SDS011;51893;59.754;10.110;2022-12-20T00:31:30;15.10;;;7.90;;
65289;SDS011;51893;59.754;10.110;2022-12-20T00:34:01;11.30;;;7.40;;
65289;SDS011;51893;59.754;10.110;2022-12-20T00:36:30;13.90;;;8.00;;
65289;SDS011;51893;59.754;10.110;2022-12-20T00:38:58;13.70;;;7.80;;
65289;SDS011;51893;59.754;10.110;2022-12-20T00:41:27;14.00;;;7.50;;
65289;SDS011;51893;59.754;10.110;2022-12-20T00:43:59;17.50;;;7.70;;
65289;SDS011;51893;59.754;10.110;2022-12-20T00:46:26;11.80;;;6.20;;
65289;SDS011;51893;59.754;10.110;2022-12-20T00:48:56;13.60;;;8.10;;
65289;SDS011;51893;59.754;10.110;2022-12-20T00:51:28;19.10;;;8.20;;
65289;SDS011;51893;59.754;10.110;2022-12-20T00:53:57;11.20;;;5.90;;
65289;SDS011;51893;59.754;10.110;2022-12-20T00:56:25;13.20;;;7.40;;
65289;SDS011;51893;59.754;10.110;2022-12-20T00:58:52;10.20;;;6.80;;
65289;SDS011;51893;59.754;10.110;2022-12-20T01:01:25;12.90;;;6.40;;
65289;SDS011;51893;59.754;10.110;2022-12-20T01:03:57;9.60;;;6.20;;
65289;SDS011;51893;59.754;10.110;2022-12-20T01:06:26;8.00;;;5.10;;
65289;SDS011;51893;59.754;10.110;2022-12-20T01:08:54;8.80;;;6.00;;
65289;SDS011;51893;59.754;10.110;2022-12-20T01:11:26;8.60;;;4.80;;
65289;SDS011;51893;59.754;10.110;2022-12-20T01:14:10;6.60;;;3.00;;
65289;SDS011;51893;59.754;10.110;2022-12-20T01:16:52;7.60;;;4.70;;
65289;SDS011;51893;59.754;10.110;2022-12-20T01:19:20;6.70;;;3.60;;
65289;SDS011;51893;59.754;10.110;2022-12-20T01:21:51;10.00;;;4.80;;
65289;SDS011;51893;59.754;10.110;2022-12-20T01:24:19;8.20;;;5.40;;
65289;SDS011;51893;59.754;10.110;2022-12-20T01:26:48;7.10;;;4.70;;
65289;SDS011;51893;59.754;10.110;2022-12-20T01:29:18;9.80;;;5.50;;
65289;SDS011;51893;59.754;10.110;2022-12-20T01:31:44;9.50;;;5.20;;
65289;SDS011;51893;59.754;10.110;2022-12-20T01:34:13;6.20;;;5.00;;
65289;SDS011;51893;59.754;10.110;2022-12-20T01:36:41;6.90;;;3.60;;
65289;SDS011;51893;59.754;10.110;2022-12-20T01:39:14;6.30;;;4.30;;
65289;SDS011;51893;59.754;10.110;2022-12-20T01:41:44;9.40;;;6.10;;
65289;SDS011;51893;59.754;10.110;2022-12-20T01:46:46;9.20;;;6.10;;
65289;SDS011;51893;59.754;10.110;2022-12-20T01:49:20;7.50;;;5.20;;
65289;SDS011;51893;59.754;10.110;2022-12-20T01:51:58;8.60;;;6.20;;
65289;SDS011;51893;59.754;10.110;2022-12-20T01:54:51;6.30;;;3.60;;
65289;SDS011;51893;59.754;10.110;2022-12-20T01:57:48;7.20;;;4.90;;
65289;SDS011;51893;59.754;10.110;2022-12-20T02:00:28;4.00;;;3.60;;
65289;SDS011;51893;59.754;10.110;2022-12-20T02:02:58;5.90;;;3.60;;
65289;SDS011;51893;59.754;10.110;2022-12-20T02:05:35;7.30;;;4.20;;
65289;SDS011;51893;59.754;10.110;2022-12-20T02:08:06;6.40;;;4.30;;
65289;SDS011;51893;59.754;10.110;2022-12-20T02:20:56;8.20;;;4.90;;
65289;SDS011;51893;59.754;10.110;2022-12-20T02:30:12;10.80;;;5.10;;
65289;SDS011;51893;59.754;10.110;2022-12-20T02:33:01;7.60;;;5.50;;
65289;SDS011;51893;59.754;10.110;2022-12-20T02:35:34;9.10;;;4.50;;
65289;SDS011;51893;59.754;10.110;2022-12-20T02:41:32;7.20;;;4.40;;
65289;SDS011;51893;59.754;10.110;2022-12-20T02:44:11;5.50;;;3.00;;
65289;SDS011;51893;59.754;10.110;2022-12-20T02:47:05;6.70;;;5.00;;
65289;SDS011;51893;59.754;10.110;2022-12-20T02:49:39;8.50;;;4.80;;
65289;SDS011;51893;59.754;10.110;2022-12-20T02:52:11;9.00;;;5.70;;
65289;SDS011;51893;59.754;10.110;2022-12-20T02:54:42;7.80;;;4.60;;
65289;SDS011;51893;59.754;10.110;2022-12-20T02:57:18;9.40;;;5.90;;
65289;SDS011;51893;59.754;10.110;2022-12-20T03:00:18;6.00;;;4.40;;
65289;SDS011;51893;59.754;10.110;2022-12-20T03:02:50;7.60;;;5.30;;
65289;SDS011;51893;59.754;10.110;2022-12-20T03:05:44;5.40;;;4.10;;
65289;SDS011;51893;59.754;10.110;2022-12-20T03:08:13;6.80;;;4.60;;
65289;SDS011;51893;59.754;10.110;2022-12-20T03:10:41;8.10;;;4.90;;
65289;SDS011;51893;59.754;10.110;2022-12-20T03:13:08;6.40;;;4.20;;
65289;SDS011;51893;59.754;10.110;2022-12-20T03:15:36;9.30;;;4.90;;
65289;SDS011;51893;59.754;10.110;2022-12-20T03:18:05;7.80;;;4.40;;
65289;SDS011;51893;59.754;10.110;2022-12-20T03:20:31;8.40;;;5.70;;
65289;SDS011;51893;59.754;10.110;2022-12-20T03:22:58;8.80;;;5.10;;
65289;SDS011;51893;59.754;10.110;2022-12-20T03:25:25;8.70;;;5.80;;
65289;SDS011;51893;59.754;10.110;2022-12-20T03:28:01;8.40;;;3.90;;
65289;SDS011;51893;59.754;10.110;2022-12-20T03:30:28;6.40;;;3.60;;
65289;SDS011;51893;59.754;10.110;2022-12-20T03:32:55;11.90;;;5.70;;
65289;SDS011;51893;59.754;10.110;2022-12-20T03:35:22;11.70;;;6.50;;
65289;SDS011;51893;59.754;10.110;2022-12-20T03:37:50;7.10;;;3.80;;
65289;SDS011;51893;59.754;10.110;2022-12-20T03:40:18;8.90;;;4.70;;
65289;SDS011;51893;59.754;10.110;2022-12-20T03:42:44;10.30;;;6.50;;
65289;SDS011;51893;59.754;10.110;2022-12-20T03:45:13;8.60;;;6.10;;
65289;SDS011;51893;59.754;10.110;2022-12-20T03:47:40;6.30;;;4.30;;
65289;SDS011;51893;59.754;10.110;2022-12-20T03:50:08;3.60;;;2.70;;
65289;SDS011;51893;59.754;10.110;2022-12-20T03:52:35;6.20;;;3.90;;
65289;SDS011;51893;59.754;10.110;2022-12-20T03:55:04;5.50;;;3.50;;
65289;SDS011;51893;59.754;10.110;2022-12-20T03:57:32;13.80;;;6.10;;
65289;SDS011;51893;59.754;10.110;2022-12-20T03:59:59;7.10;;;4.50;;
65289;SDS011;51893;59.754;10.110;2022-12-20T04:02:26;9.40;;;5.30;;
65289;SDS011;51893;59.754;10.110;2022-12-20T04:04:53;5.20;;;3.60;;
65289;SDS011;51893;59.754;10.110;2022-12-20T04:07:21;8.30;;;4.10;;
65289;SDS011;51893;59.754;10.110;2022-12-20T04:09:48;6.40;;;3.90;;
65289;SDS011;51893;59.754;10.110;2022-12-20T04:12:17;5.30;;;4.00;;
65289;SDS011;51893;59.754;10.110;2022-12-20T04:14:46;12.80;;;7.40;;
65289;SDS011;51893;59.754;10.110;2022-12-20T04:17:15;9.50;;;4.90;;
65289;SDS011;51893;59.754;10.110;2022-12-20T04:19:42;11.10;;;5.90;;
65289;SDS011;51893;59.754;10.110;2022-12-20T04:22:08;10.00;;;6.00;;
65289;SDS011;51893;59.754;10.110;2022-12-20T04:24:35;8.60;;;5.60;;
65289;SDS011;51893;59.754;10.110;2022-12-20T04:27:03;7.70;;;4.50;;
65289;SDS011;51893;59.754;10.110;2022-12-20T04:29:30;5.90;;;3.80;;
65289;SDS011;51893;59.754;10.110;2022-12-20T04:31:57;8.70;;;5.40;;
65289;SDS011;51893;59.754;10.110;2022-12-20T04:34:24;7.60;;;5.10;;
65289;SDS011;51893;59.754;10.110;2022-12-20T04:36:51;9.50;;;5.50;;
65289;SDS011;51893;59.754;10.110;2022-12-20T04:39:19;7.00;;;5.20;;
65289;SDS011;51893;59.754;10.110;2022-12-20T04:41:46;6.60;;;4.70;;
65289;SDS011;51893;59.754;10.110;2022-12-20T04:44:16;7.90;;;5.00;;
65289;SDS011;51893;59.754;10.110;2022-12-20T04:46:43;8.20;;;5.20;;
65289;SDS011;51893;59.754;10.110;2022-12-20T04:49:10;7.80;;;5.70;;
65289;SDS011;51893;59.754;10.110;2022-12-20T04:51:37;7.90;;;4.50;;
65289;SDS011;51893;59.754;10.110;2022-12-20T04:54:04;7.70;;;4.40;;
65289;SDS011;51893;59.754;10.110;2022-12-20T04:56:31;9.30;;;5.80;;
65289;SDS011;51893;59.754;10.110;2022-12-20T04:59:00;8.50;;;5.30;;
65289;SDS011;51893;59.754;10.110;2022-12-20T05:01:28;8.40;;;5.10;;
65289;SDS011;51893;59.754;10.110;2022-12-20T05:03:54;4.10;;;3.30;;
65289;SDS011;51893;59.754;10.110;2022-12-20T05:06:21;9.00;;;5.00;;
65289;SDS011;51893;59.754;10.110;2022-12-20T05:08:50;9.00;;;5.40;;
65289;SDS011;51893;59.754;10.110;2022-12-20T05:11:18;8.80;;;5.30;;
65289;SDS011;51893;59.754;10.110;2022-12-20T05:13:45;6.40;;;4.00;;
65289;SDS011;51893;59.754;10.110;2022-12-20T05:16:13;9.90;;;6.10;;
65289;SDS011;51893;59.754;10.110;2022-12-20T05:18:40;12.60;;;6.70;;
65289;SDS011;51893;59.754;10.110;2022-12-20T05:21:14;4.70;;;3.70;;
65289;SDS011;51893;59.754;10.110;2022-12-20T05:24:00;12.00;;;5.80;;
65289;SDS011;51893;59.754;10.110;2022-12-20T05:26:45;10.40;;;6.20;;
65289;SDS011;51893;59.754;10.110;2022-12-20T05:29:11;10.80;;;5.90;;
65289;SDS011;51893;59.754;10.110;2022-12-20T05:31:38;11.30;;;6.30;;
65289;SDS011;51893;59.754;10.110;2022-12-20T05:34:06;9.80;;;5.80;;
65289;SDS011;51893;59.754;10.110;2022-12-20T05:36:36;11.40;;;6.40;;
65289;SDS011;51893;59.754;10.110;2022-12-20T05:39:07;10.70;;;6.00;;
65289;SDS011;51893;59.754;10.110;2022-12-20T05:41:34;14.60;;;7.00;;
65289;SDS011;51893;59.754;10.110;2022-12-20T05:44:00;12.50;;;7.10;;
65289;SDS011;51893;59.754;10.110;2022-12-20T05:46:27;10.80;;;5.50;;
65289;SDS011;51893;59.754;10.110;2022-12-20T05:48:54;13.00;;;6.50;;
65289;SDS011;51893;59.754;10.110;2022-12-20T05:51:20;5.00;;;3.60;;
65289;SDS011;51893;59.754;10.110;2022-12-20T05:53:48;10.80;;;6.40;;
65289;SDS011;51893;59.754;10.110;2022-12-20T05:56:15;11.30;;;6.50;;
65289;SDS011;51893;59.754;10.110;2022-12-20T05:58:42;12.50;;;5.30;;
65289;SDS011;51893;59.754;10.110;2022-12-20T06:01:09;8.40;;;5.20;;
65289;SDS011;51893;59.754;10.110;2022-12-20T06:03:37;10.10;;;5.40;;
65289;SDS011;51893;59.754;10.110;2022-12-20T06:06:07;16.20;;;7.10;;
65289;SDS011;51893;59.754;10.110;2022-12-20T06:08:41;14.70;;;6.70;;
65289;SDS011;51893;59.754;10.110;2022-12-20T06:11:09;14.80;;;6.70;;
65289;SDS011;51893;59.754;10.110;2022-12-20T06:13:37;12.40;;;6.80;;
65289;SDS011;51893;59.754;10.110;2022-12-20T06:16:06;10.80;;;6.30;;
65289;SDS011;51893;59.754;10.110;2022-12-20T06:18:33;4.70;;;3.20;;
65289;SDS011;51893;59.754;10.110;2022-12-20T06:21:03;14.30;;;6.40;;
65289;SDS011;51893;59.754;10.110;2022-12-20T06:23:31;12.20;;;7.00;;
65289;SDS011;51893;59.754;10.110;2022-12-20T06:25:57;12.20;;;6.70;;
65289;SDS011;51893;59.754;10.110;2022-12-20T06:28:25;13.10;;;7.20;;
65289;SDS011;51893;59.754;10.110;2022-12-20T06:30:53;13.80;;;7.00;;
65289;SDS011;51893;59.754;10.110;2022-12-20T06:33:22;10.20;;;5.90;;
65289;SDS011;51893;59.754;10.110;2022-12-20T06:35:51;13.00;;;6.80;;
65289;SDS011;51893;59.754;10.110;2022-12-20T06:38:20;14.70;;;8.80;;
65289;SDS011;51893;59.754;10.110;2022-12-20T06:40:49;15.10;;;8.50;;
65289;SDS011;51893;59.754;10.110;2022-12-20T06:43:16;13.40;;;7.90;;
65289;SDS011;51893;59.754;10.110;2022-12-20T06:45:43;10.20;;;7.40;;
65289;SDS011;51893;59.754;10.110;2022-12-20T06:48:11;11.70;;;7.20;;
65289;SDS011;51893;59.754;10.110;2022-12-20T06:50:39;13.80;;;7.30;;
65289;SDS011;51893;59.754;10.110;2022-12-20T06:53:08;15.30;;;8.50;;
65289;SDS011;51893;59.754;10.110;2022-12-20T06:55:39;10.80;;;6.80;;
65289;SDS011;51893;59.754;10.110;2022-12-20T06:58:07;14.60;;;8.10;;
65289;SDS011;51893;59.754;10.110;2022-12-20T07:00:33;9.90;;;7.40;;
65289;SDS011;51893;59.754;10.110;2022-12-20T07:03:02;15.80;;;8.30;;
65289;SDS011;51893;59.754;10.110;2022-12-20T07:05:30;18.20;;;9.50;;
65289;SDS011;51893;59.754;10.110;2022-12-20T07:07:58;16.20;;;8.30;;
65289;SDS011;51893;59.754;10.110;2022-12-20T07:10:29;8.80;;;5.00;;
65289;SDS011;51893;59.754;10.110;2022-12-20T07:12:57;11.70;;;7.60;;
65289;SDS011;51893;59.754;10.110;2022-12-20T07:15:24;11.40;;;7.10;;
65289;SDS011;51893;59.754;10.110;2022-12-20T07:17:54;13.20;;;7.10;;
65289;SDS011;51893;59.754;10.110;2022-12-20T07:20:22;13.30;;;8.30;;
65289;SDS011;51893;59.754;10.110;2022-12-20T07:22:52;15.00;;;8.40;;
65289;SDS011;51893;59.754;10.110;2022-12-20T07:25:20;14.40;;;8.20;;
65289;SDS011;51893;59.754;10.110;2022-12-20T07:27:51;13.20;;;7.30;;
65289;SDS011;51893;59.754;10.110;2022-12-20T07:30:18;10.20;;;6.20;;
65289;SDS011;51893;59.754;10.110;2022-12-20T07:32:47;12.40;;;8.10;;
65289;SDS011;51893;59.754;10.110;2022-12-20T07:35:16;11.80;;;8.20;;
65289;SDS011;51893;59.754;10.110;2022-12-20T07:37:45;15.40;;;9.50;;
65289;SDS011;51893;59.754;10.110;2022-12-20T07:40:12;19.20;;;9.80;;
65289;SDS011;51893;59.754;10.110;2022-12-20T07:42:42;18.30;;;9.20;;
65289;SDS011;51893;59.754;10.110;2022-12-20T07:45:15;15.10;;;8.40;;
65289;SDS011;51893;59.754;10.110;2022-12-20T07:47:43;14.90;;;9.60;;
65289;SDS011;51893;59.754;10.110;2022-12-20T07:50:10;14.40;;;8.80;;
65289;SDS011;51893;59.754;10.110;2022-12-20T07:52:38;13.90;;;9.10;;
65289;SDS011;51893;59.754;10.110;2022-12-20T07:55:10;17.10;;;9.30;;
65289;SDS011;51893;59.754;10.110;2022-12-20T07:57:46;17.00;;;9.20;;
65289;SDS011;51893;59.754;10.110;2022-12-20T08:00:17;16.40;;;9.00;;
65289;SDS011;51893;59.754;10.110;2022-12-20T08:02:53;17.50;;;9.60;;
65289;SDS011;51893;59.754;10.110;2022-12-20T08:05:27;17.10;;;9.30;;
65289;SDS011;51893;59.754;10.110;2022-12-20T08:07:58;22.00;;;12.20;;
65289;SDS011;51893;59.754;10.110;2022-12-20T08:10:26;29.10;;;14.70;;
65289;SDS011;51893;59.754;10.110;2022-12-20T08:12:54;29.00;;;13.30;;
65289;SDS011;51893;59.754;10.110;2022-12-20T08:15:24;21.30;;;11.50;;
65289;SDS011;51893;59.754;10.110;2022-12-20T08:17:52;17.00;;;9.30;;
65289;SDS011;51893;59.754;10.110;2022-12-20T08:20:20;19.50;;;10.80;;
65289;SDS011;51893;59.754;10.110;2022-12-20T08:22:48;24.10;;;11.50;;
65289;SDS011;51893;59.754;10.110;2022-12-20T08:25:17;32.00;;;14.30;;
65289;SDS011;51893;59.754;10.110;2022-12-20T08:27:46;37.80;;;22.30;;
65289;SDS011;51893;59.754;10.110;2022-12-20T08:30:13;60.80;;;28.60;;
65289;SDS011;51893;59.754;10.110;2022-12-20T08:32:40;33.60;;;18.10;;
65289;SDS011;51893;59.754;10.110;2022-12-20T08:35:09;25.30;;;13.30;;
65289;SDS011;51893;59.754;10.110;2022-12-20T08:37:38;21.30;;;11.90;;
65289;SDS011;51893;59.754;10.110;2022-12-20T08:40:09;20.50;;;11.30;;
65289;SDS011;51893;59.754;10.110;2022-12-20T08:43:00;15.00;;;10.40;;
65289;SDS011;51893;59.754;10.110;2022-12-20T08:45:36;22.50;;;11.60;;
65289;SDS011;51893;59.754;10.110;2022-12-20T08:48:03;16.70;;;9.70;;
65289;SDS011;51893;59.754;10.110;2022-12-20T08:50:30;18.70;;;7.90;;
65289;SDS011;51893;59.754;10.110;2022-12-20T08:52:58;16.70;;;9.70;;
65289;SDS011;51893;59.754;10.110;2022-12-20T08:55:26;13.50;;;6.90;;
65289;SDS011;51893;59.754;10.110;2022-12-20T08:57:56;11.10;;;7.00;;
65289;SDS011;51893;59.754;10.110;2022-12-20T09:00:27;13.40;;;7.50;;
65289;SDS011;51893;59.754;10.110;2022-12-20T09:05:21;16.60;;;8.60;;
65289;SDS011;51893;59.754;10.110;2022-12-20T09:07:48;20.30;;;10.90;;
65289;SDS011;51893;59.754;10.110;2022-12-20T09:10:14;19.20;;;10.10;;
65289;SDS011;51893;59.754;10.110;2022-12-20T09:12:41;27.40;;;11.30;;
65289;SDS011;51893;59.754;10.110;2022-12-20T09:15:11;31.30;;;15.70;;
65289;SDS011;51893;59.754;10.110;2022-12-20T09:17:38;24.30;;;13.90;;
65289;SDS011;51893;59.754;10.110;2022-12-20T09:20:05;31.70;;;13.60;;
65289;SDS011;51893;59.754;10.110;2022-12-20T09:22:32;25.10;;;14.00;;
65289;SDS011;51893;59.754;10.110;2022-12-20T09:25:01;34.10;;;16.10;;
65289;SDS011;51893;59.754;10.110;2022-12-20T09:27:27;22.00;;;11.60;;
65289;SDS011;51893;59.754;10.110;2022-12-20T09:29:54;25.10;;;12.40;;
65289;SDS011;51893;59.754;10.110;2022-12-20T09:32:21;16.80;;;10.50;;
65289;SDS011;51893;59.754;10.110;2022-12-20T09:34:50;25.10;;;12.60;;
65289;SDS011;51893;59.754;10.110;2022-12-20T09:37:16;30.90;;;14.20;;
65289;SDS011;51893;59.754;10.110;2022-12-20T09:39:48;23.80;;;12.80;;
65289;SDS011;51893;59.754;10.110;2022-12-20T09:42:21;27.50;;;13.80;;
65289;SDS011;51893;59.754;10.110;2022-12-20T09:44:52;27.50;;;12.20;;
65289;SDS011;51893;59.754;10.110;2022-12-20T09:47:33;16.50;;;10.20;;
65289;SDS011;51893;59.754;10.110;2022-12-20T09:50:03;22.20;;;10.70;;
65289;SDS011;51893;59.754;10.110;2022-12-20T09:56:14;22.70;;;11.60;;
65289;SDS011;51893;59.754;10.110;2022-12-20T09:59:12;16.50;;;10.00;;
65289;SDS011;51893;59.754;10.110;2022-12-20T10:01:44;16.40;;;9.70;;
65289;SDS011;51893;59.754;10.110;2022-12-20T10:04:25;18.70;;;11.60;;
65289;SDS011;51893;59.754;10.110;2022-12-20T10:07:16;27.60;;;12.50;;
65289;SDS011;51893;59.754;10.110;2022-12-20T10:10:31;23.00;;;12.70;;
65289;SDS011;51893;59.754;10.110;2022-12-20T10:16:37;17.30;;;8.30;;
65289;SDS011;51893;59.754;10.110;2022-12-20T10:19:35;23.10;;;11.60;;
65289;SDS011;51893;59.754;10.110;2022-12-20T10:22:19;26.80;;;12.20;;
65289;SDS011;51893;59.754;10.110;2022-12-20T10:27:42;22.10;;;10.60;;
65289;SDS011;51893;59.754;10.110;2022-12-20T10:30:15;21.30;;;10.60;;
65289;SDS011;51893;59.754;10.110;2022-12-20T10:32:47;17.00;;;9.40;;
65289;SDS011;51893;59.754;10.110;2022-12-20T10:38:03;18.30;;;9.60;;
65289;SDS011;51893;59.754;10.110;2022-12-20T10:40:41;24.50;;;10.60;;
65289;SDS011;51893;59.754;10.110;2022-12-20T10:43:41;19.70;;;11.60;;
65289;SDS011;51893;59.754;10.110;2022-12-20T10:46:10;17.90;;;9.40;;
65289;SDS011;51893;59.754;10.110;2022-12-20T10:48:47;16.80;;;10.90;;
65289;SDS011;51893;59.754;10.110;2022-12-20T10:51:20;13.70;;;8.70;;
65289;SDS011;51893;59.754;10.110;2022-12-20T10:53:59;19.30;;;10.60;;
65289;SDS011;51893;59.754;10.110;2022-12-20T10:56:29;21.00;;;10.30;;
65289;SDS011;51893;59.754;10.110;2022-12-20T11:01:47;12.20;;;8.10;;
65289;SDS011;51893;59.754;10.110;2022-12-20T11:07:03;19.40;;;11.10;;
65289;SDS011;51893;59.754;10.110;2022-12-20T11:10:01;27.00;;;11.70;;
65289;SDS011;51893;59.754;10.110;2022-12-20T11:12:58;27.50;;;13.10;;
65289;SDS011;51893;59.754;10.110;2022-12-20T11:15:32;28.30;;;13.30;;
65289;SDS011;51893;59.754;10.110;2022-12-20T11:18:12;30.50;;;13.40;;
65289;SDS011;51893;59.754;10.110;2022-12-20T11:21:08;24.30;;;13.60;;
65289;SDS011;51893;59.754;10.110;2022-12-20T11:30:14;27.70;;;12.80;;
65289;SDS011;51893;59.754;10.110;2022-12-20T11:35:50;21.60;;;8.80;;
65289;SDS011;51893;59.754;10.110;2022-12-20T11:41:43;15.90;;;7.20;;
65289;SDS011;51893;59.754;10.110;2022-12-20T11:44:44;22.40;;;10.30;;
65289;SDS011;51893;59.754;10.110;2022-12-20T11:51:03;20.70;;;9.40;;
65289;SDS011;51893;59.754;10.110;2022-12-20T11:54:08;18.40;;;8.60;;
65289;SDS011;51893;59.754;10.110;2022-12-20T11:56:45;19.50;;;9.90;;
65289;SDS011;51893;59.754;10.110;2022-12-20T11:59:23;12.30;;;4.50;;
65289;SDS011;51893;59.754;10.110;2022-12-20T12:05:58;10.10;;;4.90;;
65289;SDS011;51893;59.754;10.110;2022-12-20T12:11:42;16.50;;;8.40;;
65289;SDS011;51893;59.754;10.110;2022-12-20T12:15:15;11.60;;;6.10;;
65289;SDS011;51893;59.754;10.110;2022-12-20T12:18:02;15.00;;;7.20;;
65289;SDS011;51893;59.754;10.110;2022-12-20T12:20:47;12.90;;;6.50;;
65289;SDS011;51893;59.754;10.110;2022-12-20T12:23:31;9.10;;;3.30;;
65289;SDS011;51893;59.754;10.110;2022-12-20T12:26:31;16.00;;;6.50;;
65289;SDS011;51893;59.754;10.110;2022-12-20T12:29:04;11.80;;;4.90;;
65289;SDS011;51893;59.754;10.110;2022-12-20T12:31:38;15.60;;;6.60;;
65289;SDS011;51893;59.754;10.110;2022-12-20T12:37:18;13.90;;;6.80;;
65289;SDS011;51893;59.754;10.110;2022-12-20T12:43:20;13.80;;;6.90;;
65289;SDS011;51893;59.754;10.110;2022-12-20T12:46:03;16.70;;;7.70;;
65289;SDS011;51893;59.754;10.110;2022-12-20T12:51:38;18.50;;;8.20;;
65289;SDS011;51893;59.754;10.110;2022-12-20T12:54:34;26.70;;;10.70;;
65289;SDS011;51893;59.754;10.110;2022-12-20T12:57:14;22.70;;;11.00;;
65289;SDS011;51893;59.754;10.110;2022-12-20T12:59:48;23.90;;;10.20;;
65289;SDS011;51893;59.754;10.110;2022-12-20T13:05:00;19.40;;;9.40;;
65289;SDS011;51893;59.754;10.110;2022-12-20T13:07:52;24.00;;;9.00;;
65289;SDS011;51893;59.754;10.110;2022-12-20T13:17:59;19.20;;;8.40;;
65289;SDS011;51893;59.754;10.110;2022-12-20T13:20:42;16.20;;;7.20;;
65289;SDS011;51893;59.754;10.110;2022-12-20T13:23:13;16.40;;;6.70;;
65289;SDS011;51893;59.754;10.110;2022-12-20T13:25:47;24.40;;;8.50;;
65289;SDS011;51893;59.754;10.110;2022-12-20T13:36:29;23.10;;;9.60;;
65289;SDS011;51893;59.754;10.110;2022-12-20T13:41:50;39.50;;;15.10;;
65289;SDS011;51893;59.754;10.110;2022-12-20T13:44:35;33.00;;;12.40;;
65289;SDS011;51893;59.754;10.110;2022-12-20T13:50:26;18.70;;;8.20;;
65289;SDS011;51893;59.754;10.110;2022-12-20T13:52:58;26.90;;;10.90;;
65289;SDS011;51893;59.754;10.110;2022-12-20T13:55:37;25.00;;;9.90;;
65289;SDS011;51893;59.754;10.110;2022-12-20T13:58:15;19.80;;;8.10;;
65289;SDS011;51893;59.754;10.110;2022-12-20T14:00:47;19.90;;;8.20;;
65289;SDS011;51893;59.754;10.110;2022-12-20T14:03:22;28.40;;;11.40;;
65289;SDS011;51893;59.754;10.110;2022-12-20T14:06:01;19.80;;;9.10;;
65289;SDS011;51893;59.754;10.110;2022-12-20T14:08:35;18.30;;;10.00;;
65289;SDS011;51893;59.754;10.110;2022-12-20T14:11:19;16.20;;;8.50;;
65289;SDS011;51893;59.754;10.110;2022-12-20T14:13:58;14.30;;;7.30;;
65289;SDS011;51893;59.754;10.110;2022-12-20T14:16:31;10.60;;;4.70;;
65289;SDS011;51893;59.754;10.110;2022-12-20T14:21:38;15.10;;;7.70;;
65289;SDS011;51893;59.754;10.110;2022-12-20T14:24:16;15.20;;;7.10;;
65289;SDS011;51893;59.754;10.110;2022-12-20T14:26:50;12.20;;;5.90;;
65289;SDS011;51893;59.754;10.110;2022-12-20T14:29:27;23.00;;;8.80;;
65289;SDS011;51893;59.754;10.110;2022-12-20T14:31:56;17.60;;;8.50;;
65289;SDS011;51893;59.754;10.110;2022-12-20T14:34:26;17.30;;;8.40;;
65289;SDS011;51893;59.754;10.110;2022-12-20T14:42:39;14.80;;;6.20;;
65289;SDS011;51893;59.754;10.110;2022-12-20T14:48:03;23.10;;;8.70;;
65289;SDS011;51893;59.754;10.110;2022-12-20T14:50:36;23.30;;;10.30;;
65289;SDS011;51893;59.754;10.110;2022-12-20T14:53:19;21.90;;;9.80;;
65289;SDS011;51893;59.754;10.110;2022-12-20T14:55:51;30.30;;;13.30;;
65289;SDS011;51893;59.754;10.110;2022-12-20T14:58:35;30.30;;;12.60;;
65289;SDS011;51893;59.754;10.110;2022-12-20T15:01:18;26.80;;;11.20;;
65289;SDS011;51893;59.754;10.110;2022-12-20T15:09:06;22.60;;;9.40;;
65289;SDS011;51893;59.754;10.110;2022-12-20T15:11:41;7.60;;;12.90;;
65289;SDS011;51893;59.754;10.110;2022-12-20T15:14:33;11.20;;;6.20;;
65289;SDS011;51893;59.754;10.110;2022-12-20T15:17:10;26.40;;;11.30;;
65289;SDS011;51893;59.754;10.110;2022-12-20T15:19:42;20.40;;;11.20;;
65289;SDS011;51893;59.754;10.110;2022-12-20T15:22:16;26.90;;;11.80;;
65289;SDS011;51893;59.754;10.110;2022-12-20T15:24:44;26.90;;;11.90;;
65289;SDS011;51893;59.754;10.110;2022-12-20T15:27:13;23.70;;;10.20;;
65289;SDS011;51893;59.754;10.110;2022-12-20T15:29:41;27.40;;;11.40;;
65289;SDS011;51893;59.754;10.110;2022-12-20T15:32:26;15.80;;;7.20;;
65289;SDS011;51893;59.754;10.110;2022-12-20T15:37:29;18.90;;;8.30;;
65289;SDS011;51893;59.754;10.110;2022-12-20T15:39:56;17.00;;;9.40;;
65289;SDS011;51893;59.754;10.110;2022-12-20T15:42:23;19.30;;;9.50;;
65289;SDS011;51893;59.754;10.110;2022-12-20T15:44:49;26.40;;;11.00;;
65289;SDS011;51893;59.754;10.110;2022-12-20T15:47:18;12.40;;;6.70;;
65289;SDS011;51893;59.754;10.110;2022-12-20T15:49:45;13.90;;;6.30;;
65289;SDS011;51893;59.754;10.110;2022-12-20T15:52:21;18.90;;;10.00;;
65289;SDS011;51893;59.754;10.110;2022-12-20T15:54:50;25.00;;;10.10;;
65289;SDS011;51893;59.754;10.110;2022-12-20T15:57:18;23.10;;;10.40;;
65289;SDS011;51893;59.754;10.110;2022-12-20T15:59:46;15.40;;;8.20;;
65289;SDS011;51893;59.754;10.110;2022-12-20T16:02:28;7.00;;;4.00;;
65289;SDS011;51893;59.754;10.110;2022-12-20T16:04:56;15.30;;;6.50;;
65289;SDS011;51893;59.754;10.110;2022-12-20T16:07:27;11.20;;;5.60;;
65289;SDS011;51893;59.754;10.110;2022-12-20T16:09:54;14.10;;;7.20;;
65289;SDS011;51893;59.754;10.110;2022-12-20T16:12:28;10.20;;;6.20;;
65289;SDS011;51893;59.754;10.110;2022-12-20T16:15:00;10.90;;;7.30;;
65289;SDS011;51893;59.754;10.110;2022-12-20T16:17:29;14.70;;;7.90;;
65289;SDS011;51893;59.754;10.110;2022-12-20T16:19:56;11.20;;;6.90;;
65289;SDS011;51893;59.754;10.110;2022-12-20T16:22:24;8.60;;;5.20;;
65289;SDS011;51893;59.754;10.110;2022-12-20T16:24:54;11.90;;;6.20;;
65289;SDS011;51893;59.754;10.110;2022-12-20T16:27:24;8.60;;;5.10;;
65289;SDS011;51893;59.754;10.110;2022-12-20T16:29:51;8.70;;;4.90;;
65289;SDS011;51893;59.754;10.110;2022-12-20T16:32:19;6.50;;;4.30;;
65289;SDS011;51893;59.754;10.110;2022-12-20T16:34:50;7.40;;;4.70;;
65289;SDS011;51893;59.754;10.110;2022-12-20T16:37:18;9.60;;;5.90;;
65289;SDS011;51893;59.754;10.110;2022-12-20T16:39:46;8.70;;;5.10;;
65289;SDS011;51893;59.754;10.110;2022-12-20T16:42:17;12.10;;;5.80;;
65289;SDS011;51893;59.754;10.110;2022-12-20T16:44:52;10.20;;;6.30;;
65289;SDS011;51893;59.754;10.110;2022-12-20T16:47:24;5.00;;;3.30;;
65289;SDS011;51893;59.754;10.110;2022-12-20T16:49:53;3.60;;;3.10;;
65289;SDS011;51893;59.754;10.110;2022-12-20T16:52:24;5.30;;;3.20;;
65289;SDS011;51893;59.754;10.110;2022-12-20T16:54:53;6.80;;;3.60;;